KRNTKELN

Guest
Details From KRNT - Renton Muni
To KELN - BOWERS FLD
Flight Number -
Tags generated
Created
Modified
Stats Distance 74 nm / 137 km
Max Altitude 3,400 ft / 1,036 m
Waypoints 3
Social Downloads 1
Likes 0
Share VATSIM

Download

Looking for another format? Having issues loading an existing format? Contact us
Advertisement - Login to hide

Notes

Basic altitude profile: - Ascent Rate: 1000ft/min - Ascent Speed: 185kts - Cruise Altitude: 12000ft - Cruise Speed: 210kts - Descent Rate: 500ft/min - Descent Speed: 185kts Options: - Use NATs: no - Use PACOTS: no - Use low airways: yes - Use high airways: no

Route

KRNT BEEZR KELN

ID Type Via Altitude Latitude Longitude Leg Dist Tot Dist Heading (true) Name
O KRNT APT - 0 ft / 0 m 47.49313˚ -122.21574˚ - 0 nm - Renton Muni
BEEZR FIX - 3,400 ft / 1,036 m 47.12470˚ -120.89561˚ 58 nm 58 nm 112° / 113° -
O KELN APT - 0 ft / 0 m 47.03324˚ -120.53048˚ 15 nm 74 nm 110° / 110° BOWERS FLD

Altitude Profile

Advertisement - Login to hide

KRNT

Details ICAO KRNT (RNT)
Name Renton Muni
Region United States
Timezone America/Los_Angeles (UTC-8.0)
Stats Elevation 32 ft / 10 m (AMSL)
Location 47.493133° -122.215743°
Runways 1
Magnetic Variation 15.676° E

METAR

KRNT 182010Z VRB03KT 10SM -RA OVC029 08/07 A3014 RMK AO2 P0000 T00830067

Decode

TAF

Not found

Departure Runways

ID Width Length Bearing (true) Bearing (mag) Surface Threshold Offset Overrun Length
16 200 ft / 61 m 5,384 ft / 1,641 m 174.16° 158.48° Asphalt 299 ft / 91 m 0 ft / 0 m
34 200 ft / 61 m 5,384 ft / 1,641 m 354.17° 338.49° Asphalt 341 ft / 104 m 210 ft / 64 m

KELN

Details ICAO KELN
Name BOWERS FLD
Region United States
Timezone America/Los_Angeles (UTC-8.0)
Stats Elevation 1,763 ft / 537 m (AMSL)
Location 47.033240° -120.530484°
Runways 2
Magnetic Variation 15.222° E

METAR

KELN 181953Z AUTO 32017KT 10SM BKN065 09/03 A2999 RMK AO2 SLP166 T00890033

Decode

TAF

Not found

Destination Runways

ID Width Length Bearing (true) Bearing (mag) Surface Threshold Offset Overrun Length
07 150 ft / 46 m 5,574 ft / 1,699 m 87.93° 72.71° Asphalt 0 ft / 0 m 0 ft / 0 m
11 150 ft / 46 m 4,295 ft / 1,309 m 133.07° 117.85° Concrete 0 ft / 0 m 0 ft / 0 m
25 150 ft / 46 m 5,574 ft / 1,699 m 267.94° 252.72° Asphalt 0 ft / 0 m 0 ft / 0 m
29 150 ft / 46 m 4,295 ft / 1,309 m 313.08° 297.86° Concrete 0 ft / 0 m 0 ft / 0 m

Popular Alternatives